createdAt,value
2018-11-29T00:00:05.407Z,100826.91
2018-11-29T00:01:08.804Z,100830.05
2018-11-29T00:02:12.260Z,100822.83
2018-11-29T00:03:15.699Z,100816.73
2018-11-29T00:04:19.146Z,100816.73
2018-11-29T00:05:22.571Z,100810.68
2018-11-29T00:06:25.997Z,100801.90
2018-11-29T00:07:29.415Z,100804.89
2018-11-29T00:08:32.854Z,100801.09
2018-11-29T00:09:39.437Z,100802.23
2018-11-29T00:10:42.913Z,100807.61
2018-11-29T00:11:46.314Z,100797.47
2018-11-29T00:12:49.771Z,100802.81
2018-11-29T00:13:53.232Z,100813.13
2018-11-29T00:14:56.640Z,100804.00
2018-11-29T00:16:00.067Z,100808.70
2018-11-29T00:17:03.518Z,100802.71
2018-11-29T00:18:07.112Z,100803.10
2018-11-29T00:19:10.585Z,100809.28
2018-11-29T00:20:18.252Z,100812.12
2018-11-29T00:21:21.703Z,100813.41
2018-11-29T00:22:25.109Z,100821.69
2018-11-29T00:23:28.558Z,100817.37
2018-11-29T00:24:31.972Z,100814.03
2018-11-29T00:25:35.416Z,100813.84
2018-11-29T00:26:38.820Z,100809.08
2018-11-29T00:27:42.397Z,100809.79
2018-11-29T00:28:45.845Z,100801.42
2018-11-29T00:29:49.307Z,100805.16
2018-11-29T00:30:52.749Z,100813.05
2018-11-29T00:31:56.169Z,100802.87
2018-11-29T00:32:59.578Z,100809.72
2018-11-29T00:34:02.991Z,100811.73
2018-11-29T00:35:08.151Z,100806.78
2018-11-29T00:36:11.536Z,100812.87
2018-11-29T00:37:14.941Z,100809.54
2018-11-29T00:38:18.392Z,100807.59
2018-11-29T00:39:21.829Z,100804.09
2018-11-29T00:40:25.341Z,100799.23
2018-11-29T00:41:28.769Z,100794.38
2018-11-29T00:42:32.209Z,100800.80
2018-11-29T00:43:35.654Z,100803.72
2018-11-29T00:44:39.035Z,100810.47
2018-11-29T00:45:42.517Z,100810.80
2018-11-29T00:46:45.954Z,100819.97
2018-11-29T00:47:49.784Z,100798.73
2018-11-29T00:48:53.221Z,100806.09
2018-11-29T00:49:56.664Z,100806.09
2018-11-29T00:51:00.066Z,100801.91
2018-11-29T00:52:03.498Z,100799.34
2018-11-29T00:53:06.961Z,100801.44
2018-11-29T00:54:10.367Z,100808.98
2018-11-29T00:55:17.573Z,100804.52
2018-11-29T00:56:21.050Z,100803.84
2018-11-29T00:57:24.434Z,100792.59
2018-11-29T00:58:27.873Z,100795.58
2018-11-29T00:59:31.322Z,100793.40
2018-11-29T01:00:34.754Z,100793.40
2018-11-29T01:01:42.359Z,100787.88
2018-11-29T01:02:45.780Z,100794.54
2018-11-29T01:03:49.224Z,100791.55
2018-11-29T01:04:52.641Z,100792.66
2018-11-29T01:05:56.084Z,100791.61
2018-11-29T01:06:59.638Z,100786.97
2018-11-29T01:08:03.077Z,100793.95
2018-11-29T01:09:08.882Z,100799.23
2018-11-29T01:10:17.132Z,100800.14
2018-11-29T01:11:20.626Z,100801.38
2018-11-29T01:12:24.111Z,100801.44
2018-11-29T01:13:27.511Z,100800.16
2018-11-29T01:14:30.935Z,100810.80
2018-11-29T01:15:34.348Z,100808.47
2018-11-29T01:16:37.776Z,100808.28
2018-11-29T01:17:41.238Z,100803.77
2018-11-29T01:18:44.602Z,100803.20
2018-11-29T01:19:48.042Z,100805.71
2018-11-29T01:20:51.455Z,100810.74
2018-11-29T01:21:54.851Z,100798.00
2018-11-29T01:22:58.347Z,100799.91
2018-11-29T01:24:01.777Z,100792.05
2018-11-29T01:25:06.182Z,100797.38
2018-11-29T01:26:09.584Z,100804.89
2018-11-29T01:27:13.019Z,100806.72
2018-11-29T01:28:16.453Z,100806.38
2018-11-29T01:29:20.015Z,100801.91
2018-11-29T01:30:23.447Z,100799.96
2018-11-29T01:31:26.843Z,100799.63
2018-11-29T01:32:30.267Z,100802.15
2018-11-29T01:33:33.671Z,100795.58
2018-11-29T01:34:37.105Z,100794.20
2018-11-29T01:35:40.552Z,100804.44
2018-11-29T01:36:43.939Z,100801.20
2018-11-29T01:37:47.440Z,100803.21
2018-11-29T01:38:50.896Z,100801.83
2018-11-29T01:39:54.347Z,100809.36
2018-11-29T01:40:57.727Z,100811.08
2018-11-29T01:42:01.190Z,100803.47
2018-11-29T01:43:04.797Z,100817.83
2018-11-29T01:44:08.319Z,100809.98
2018-11-29T01:45:12.051Z,100816.45
2018-11-29T01:46:15.453Z,100809.66
2018-11-29T01:47:18.917Z,100805.70
2018-11-29T01:48:22.379Z,100804.09
2018-11-29T01:49:25.813Z,100814.22
2018-11-29T01:50:29.234Z,100813.55
2018-11-29T01:51:32.684Z,100813.61
2018-11-29T01:52:36.139Z,100805.18
2018-11-29T01:53:39.590Z,100803.52
2018-11-29T01:54:42.999Z,100809.48
2018-11-29T01:55:46.438Z,100803.53
2018-11-29T01:56:49.914Z,100808.14
2018-11-29T01:57:53.382Z,100803.44
2018-11-29T01:58:56.814Z,100806.19
2018-11-29T02:00:00.232Z,100807.00
2018-11-29T02:01:03.683Z,100803.00
2018-11-29T02:02:07.103Z,100807.71
2018-11-29T02:03:10.544Z,100804.48
2018-11-29T02:04:13.961Z,100804.91
2018-11-29T02:05:17.516Z,100806.52
2018-11-29T02:06:22.249Z,100795.02
2018-11-29T02:07:25.781Z,100795.92
2018-11-29T02:08:30.183Z,100798.17
2018-11-29T02:09:33.577Z,100807.08
2018-11-29T02:10:42.392Z,100801.99
2018-11-29T02:11:46.285Z,100801.99
2018-11-29T02:12:49.789Z,100797.47
2018-11-29T02:13:53.214Z,100802.81
2018-11-29T02:14:56.766Z,100797.96
2018-11-29T02:16:00.161Z,100805.05
2018-11-29T02:17:03.622Z,100804.00
2018-11-29T02:18:07.021Z,100802.38
2018-11-29T02:19:10.464Z,100801.00
2018-11-29T02:20:17.084Z,100802.53
2018-11-29T02:21:21.657Z,100804.37
2018-11-29T02:22:24.085Z,100802.89
2018-11-29T02:23:27.497Z,100807.59
2018-11-29T02:24:30.920Z,100805.64
2018-11-29T02:25:34.329Z,100801.34
2018-11-29T02:26:37.775Z,100804.91
2018-11-29T02:27:41.237Z,100798.72
2018-11-29T02:28:47.228Z,100803.41
2018-11-29T02:29:50.652Z,100803.14
2018-11-29T02:30:54.103Z,100800.72
2018-11-29T02:31:57.540Z,100795.20
2018-11-29T02:33:00.963Z,100793.91
2018-11-29T02:34:05.608Z,100781.73
2018-11-29T02:35:09.057Z,100792.53
2018-11-29T02:36:12.483Z,100787.02
2018-11-29T02:37:15.917Z,100784.69
2018-11-29T02:38:19.319Z,100787.78
2018-11-29T02:39:22.745Z,100792.25
2018-11-29T02:40:26.214Z,100790.16
2018-11-29T02:41:29.715Z,100794.94
2018-11-29T02:42:33.147Z,100789.72
2018-11-29T02:43:36.583Z,100785.44
2018-11-29T02:44:39.975Z,100784.73
2018-11-29T02:45:43.478Z,100785.39
2018-11-29T02:46:46.965Z,100775.80
2018-11-29T02:47:50.449Z,100779.80
2018-11-29T02:48:53.858Z,100771.05
2018-11-29T02:49:57.372Z,100770.91
2018-11-29T02:51:00.789Z,100769.86
2018-11-29T02:52:04.276Z,100766.36
2018-11-29T02:53:07.724Z,100767.50
2018-11-29T02:54:11.118Z,100754.38
2018-11-29T02:55:14.557Z,100761.59
2018-11-29T02:56:18.095Z,100764.45
2018-11-29T02:57:21.488Z,100763.97
2018-11-29T02:58:24.986Z,100763.02
2018-11-29T02:59:28.411Z,100757.33
2018-11-29T03:00:32.032Z,100763.50
2018-11-29T03:01:35.438Z,100758.41
2018-11-29T03:02:38.847Z,100752.17
2018-11-29T03:03:42.282Z,100760.27
2018-11-29T03:04:45.738Z,100756.80
2018-11-29T03:05:49.153Z,100761.83
2018-11-29T03:06:52.593Z,100756.97
2018-11-29T03:07:56.033Z,100763.38
2018-11-29T03:08:59.428Z,100759.34
2018-11-29T03:10:03.158Z,100761.91
2018-11-29T03:11:06.594Z,100761.67
2018-11-29T03:12:10.027Z,100758.44
2018-11-29T03:13:13.384Z,100764.03
2018-11-29T03:14:16.794Z,100761.84
2018-11-29T03:15:20.283Z,100768.31
2018-11-29T03:16:23.691Z,100768.04
2018-11-29T03:17:27.222Z,100765.38
2018-11-29T03:18:30.652Z,100761.09
2018-11-29T03:19:34.053Z,100761.42
2018-11-29T03:20:37.416Z,100765.30
2018-11-29T03:21:40.832Z,100762.87
2018-11-29T03:22:44.291Z,100764.59
2018-11-29T03:23:47.710Z,100767.34
2018-11-29T03:24:51.115Z,100768.80
2018-11-29T03:25:54.645Z,100773.23
2018-11-29T03:26:58.072Z,100757.59
2018-11-29T03:28:01.514Z,100767.23
2018-11-29T03:29:04.929Z,100762.86
2018-11-29T03:30:14.585Z,100754.12
2018-11-29T03:31:18.026Z,100751.70
2018-11-29T03:32:21.507Z,100751.78
2018-11-29T03:33:24.951Z,100754.05
2018-11-29T03:34:28.352Z,100751.92
2018-11-29T03:35:31.790Z,100755.81
2018-11-29T03:36:35.603Z,100768.52
2018-11-29T03:37:39.056Z,100764.72
2018-11-29T03:38:42.509Z,100760.11
2018-11-29T03:39:45.881Z,100763.19
2018-11-29T03:40:49.283Z,100766.27
2018-11-29T03:41:52.696Z,100763.84
2018-11-29T03:42:56.118Z,100762.54
2018-11-29T03:43:59.508Z,100761.73
2018-11-29T03:45:03.030Z,100768.34
2018-11-29T03:46:06.546Z,100766.48
2018-11-29T03:47:09.943Z,100764.05
2018-11-29T03:48:13.565Z,100770.69
2018-11-29T03:49:16.995Z,100767.12
2018-11-29T03:50:20.421Z,100766.64
2018-11-29T03:51:23.788Z,100767.78
2018-11-29T03:52:27.208Z,100771.34
2018-11-29T03:53:30.628Z,100768.59
2018-11-29T03:54:34.105Z,100762.84
2018-11-29T03:55:37.546Z,100760.98
2018-11-29T03:56:41.039Z,100752.16
2018-11-29T03:57:44.409Z,100757.74
2018-11-29T03:58:47.875Z,100759.12
2018-11-29T03:59:51.338Z,100756.69
2018-11-29T04:00:54.768Z,100759.69
2018-11-29T04:01:58.245Z,100765.48
2018-11-29T04:03:01.680Z,100770.17
2018-11-29T04:04:05.415Z,100766.13
2018-11-29T04:05:08.982Z,100764.75
2018-11-29T04:06:12.420Z,100765.08
2018-11-29T04:07:15.858Z,100769.77
2018-11-29T04:08:19.254Z,100767.34
2018-11-29T04:09:22.644Z,100761.59
2018-11-29T04:10:26.119Z,100763.30
2018-11-29T04:11:29.534Z,100764.11
2018-11-29T04:12:32.927Z,100769.61
2018-11-29T04:13:36.367Z,100766.61
2018-11-29T04:14:39.758Z,100761.68
2018-11-29T04:15:43.221Z,100764.42
2018-11-29T04:16:46.626Z,100759.81
2018-11-29T04:17:50.234Z,100757.06
2018-11-29T04:18:53.636Z,100751.31
2018-11-29T04:19:57.188Z,100758.52
2018-11-29T04:21:00.601Z,100748.89
2018-11-29T04:22:03.990Z,100754.92
2018-11-29T04:23:07.488Z,100756.58
2018-11-29T04:24:10.900Z,100758.81
2018-11-29T04:25:15.283Z,100756.38
2018-11-29T04:26:18.772Z,100750.39
2018-11-29T04:27:22.212Z,100749.34
2018-11-29T04:28:25.639Z,100751.84
2018-11-29T04:29:29.083Z,100753.22
2018-11-29T04:30:32.561Z,100750.23
2018-11-29T04:31:36.023Z,100750.52
2018-11-29T04:32:39.614Z,100742.59
2018-11-29T04:33:42.994Z,100743.16
2018-11-29T04:34:46.443Z,100746.23
2018-11-29T04:35:50.017Z,100745.98
2018-11-29T04:36:53.435Z,100740.21
2018-11-29T04:37:56.853Z,100746.84
2018-11-29T04:39:00.271Z,100740.77
2018-11-29T04:40:03.856Z,100738.91
2018-11-29T04:41:07.291Z,100738.10
2018-11-29T04:42:10.657Z,100740.05
2018-11-29T04:43:14.160Z,100741.17
2018-11-29T04:44:17.642Z,100733.48
2018-11-29T04:45:21.100Z,100725.00
2018-11-29T04:46:55.375Z,100721.19
2018-11-29T04:47:58.779Z,100729.77
2018-11-29T04:49:02.166Z,100731.14
2018-11-29T04:50:05.920Z,100729.03
2018-11-29T04:51:09.281Z,100724.66
2018-11-29T04:52:12.752Z,100726.33
2018-11-29T04:53:16.273Z,100713.95
2018-11-29T04:54:19.764Z,100723.02
2018-11-29T04:55:24.849Z,100714.28
2018-11-29T04:56:28.429Z,100716.78
2018-11-29T04:57:31.895Z,100725.03
2018-11-29T04:58:35.419Z,100699.23
2018-11-29T04:59:38.859Z,100717.67
2018-11-29T05:00:42.263Z,100716.05
2018-11-29T05:01:45.674Z,100713.30
2018-11-29T05:02:49.154Z,100717.19
2018-11-29T05:03:52.662Z,100716.38
2018-11-29T05:04:56.103Z,100712.57
2018-11-29T05:05:59.557Z,100710.63
2018-11-29T05:07:03.037Z,100715.08
2018-11-29T05:08:06.986Z,100713.45
2018-11-29T05:09:10.889Z,100708.52
2018-11-29T05:10:17.994Z,100710.22
2018-11-29T05:11:21.458Z,100712.16
2018-11-29T05:12:24.874Z,100707.76
2018-11-29T05:13:28.292Z,100705.58
2018-11-29T05:14:31.694Z,100703.71
2018-11-29T05:15:35.142Z,100710.59
2018-11-29T05:16:38.554Z,100702.91
2018-11-29T05:17:41.969Z,100706.22
2018-11-29T05:18:45.398Z,100705.16
2018-11-29T05:19:48.971Z,100711.23
2018-11-29T05:20:52.364Z,100704.36
2018-11-29T05:21:55.776Z,100705.97
2018-11-29T05:22:59.187Z,100695.78
2018-11-29T05:24:02.976Z,100695.78
2018-11-29T05:25:07.730Z,100699.34
2018-11-29T05:26:11.188Z,100694.66
2018-11-29T05:27:14.649Z,100693.03
2018-11-29T05:28:18.065Z,100689.16
2018-11-29T05:29:21.578Z,100693.84
2018-11-29T05:30:25.026Z,100697.97
2018-11-29T05:31:28.526Z,100686.73
2018-11-29T05:32:31.946Z,100682.36
2018-11-29T05:33:35.454Z,100673.87
2018-11-29T05:34:38.978Z,100676.38
2018-11-29T05:35:43.384Z,100672.57
2018-11-29T05:36:46.947Z,100675.88
2018-11-29T05:37:51.652Z,100677.50
2018-11-29T05:38:55.425Z,100676.62
2018-11-29T05:39:58.850Z,100683.00
2018-11-29T05:41:02.270Z,100687.13
2018-11-29T05:42:05.814Z,100689.88
2018-11-29T05:43:09.358Z,100688.02
2018-11-29T05:44:12.801Z,100697.39
2018-11-29T05:45:16.253Z,100688.66
2018-11-29T05:46:19.714Z,100693.91
2018-11-29T05:47:23.129Z,100695.81
2018-11-29T05:48:26.605Z,100690.64
2018-11-29T05:49:30.087Z,100679.97
2018-11-29T05:50:33.518Z,100681.91
2018-11-29T05:51:36.953Z,100679.16
2018-11-29T05:52:41.861Z,100680.28
2018-11-29T05:53:44.323Z,100665.73
2018-11-29T05:54:47.828Z,100676.73
2018-11-29T05:55:51.301Z,100677.29
2018-11-29T05:56:54.827Z,100678.42
2018-11-29T05:57:58.242Z,100677.93
2018-11-29T05:59:01.645Z,100674.62
2018-11-29T06:00:06.357Z,100679.30
2018-11-29T06:01:14.238Z,100674.13
2018-11-29T06:02:17.807Z,100679.95
2018-11-29T06:03:21.337Z,100675.58
2018-11-29T06:04:24.726Z,100674.45
2018-11-29T06:05:28.172Z,100675.83
2018-11-29T06:06:31.596Z,100674.70
2018-11-29T06:07:35.004Z,100675.50
2018-11-29T06:08:38.523Z,100682.86
2018-11-29T06:09:41.973Z,100681.98
2018-11-29T06:10:45.378Z,100683.11
2018-11-29T06:11:48.853Z,100682.05
2018-11-29T06:12:52.254Z,100679.62
2018-11-29T06:13:55.657Z,100680.76
2018-11-29T06:14:59.072Z,100683.02
2018-11-29T06:16:02.507Z,100677.27
2018-11-29T06:17:06.224Z,100681.93
2018-11-29T06:18:09.955Z,100667.70
2018-11-29T06:19:13.365Z,100673.52
2018-11-29T06:20:18.144Z,100677.15
2018-11-29T06:21:21.648Z,100672.22
2018-11-29T06:22:25.110Z,100671.16
2018-11-29T06:23:28.512Z,100675.84
2018-11-29T06:24:31.932Z,100670.67
2018-11-29T06:25:35.387Z,100669.38
2018-11-29T06:26:38.823Z,100665.01
2018-11-29T06:27:42.253Z,100664.77
2018-11-29T06:28:45.682Z,100666.14
2018-11-29T06:29:49.179Z,100659.27
2018-11-29T06:30:52.634Z,100672.73
2018-11-29T06:31:56.000Z,100671.11
2018-11-29T06:32:59.439Z,100662.05
2018-11-29T06:34:02.851Z,100666.17
2018-11-29T06:35:07.320Z,100666.74
2018-11-29T06:36:10.731Z,100676.36
2018-11-29T06:37:14.199Z,100668.44
2018-11-29T06:38:17.668Z,100660.52
2018-11-29T06:39:21.261Z,100664.39
2018-11-29T06:40:24.679Z,100662.45
2018-11-29T06:41:28.048Z,100661.64
2018-11-29T06:42:31.490Z,100664.70
2018-11-29T06:43:34.990Z,100661.71
2018-11-29T06:44:38.434Z,100665.27
2018-11-29T06:45:41.862Z,100661.47
2018-11-29T06:46:45.290Z,100664.78
2018-11-29T06:47:49.939Z,100667.53
2018-11-29T06:48:53.387Z,100671.64
2018-11-29T06:49:56.784Z,100663.69
2018-11-29T06:51:00.226Z,100667.81
2018-11-29T06:52:03.708Z,100662.88
2018-11-29T06:53:11.337Z,100667.00
2018-11-29T06:54:14.817Z,100663.45
2018-11-29T06:55:25.564Z,100664.02
2018-11-29T06:56:29.038Z,100655.49
2018-11-29T06:57:32.470Z,100653.31
2018-11-29T06:58:35.897Z,100653.06
2018-11-29T06:59:39.408Z,100641.52
2018-11-29T07:00:42.817Z,100645.39
2018-11-29T07:01:46.375Z,100640.14
2018-11-29T07:02:49.780Z,100641.52
2018-11-29T07:03:53.172Z,100630.77
2018-11-29T07:04:56.617Z,100648.02
2018-11-29T07:06:00.132Z,100636.78
2018-11-29T07:07:03.561Z,100641.52
2018-11-29T07:08:07.332Z,100636.24
2018-11-29T07:09:10.739Z,100643.61
2018-11-29T07:10:14.157Z,100626.86
2018-11-29T07:11:17.877Z,100635.52
2018-11-29T07:12:21.274Z,100643.19
2018-11-29T07:13:24.796Z,100639.03
2018-11-29T07:14:28.216Z,100634.98
2018-11-29T07:15:32.183Z,100620.61
2018-11-29T07:16:35.612Z,100621.75
2018-11-29T07:17:39.481Z,100630.33
2018-11-29T07:18:42.916Z,100621.39
2018-11-29T07:19:46.336Z,100623.48
2018-11-29T07:21:01.147Z,100621.30
2018-11-29T07:22:04.666Z,100616.06
2018-11-29T07:23:08.132Z,100600.70
2018-11-29T07:24:11.582Z,100622.51
2018-11-29T07:25:15.030Z,100614.22
2018-11-29T07:26:18.546Z,100614.13
2018-11-29T07:27:21.948Z,100612.97
2018-11-29T07:28:26.206Z,100611.21
2018-11-29T07:29:29.685Z,100610.27
2018-11-29T07:30:33.074Z,100610.73
2018-11-29T07:31:36.548Z,100620.52
2018-11-29T07:32:40.174Z,100618.20
2018-11-29T07:33:43.672Z,100618.62
2018-11-29T07:34:47.095Z,100603.49
2018-11-29T07:35:50.582Z,100609.16
2018-11-29T07:36:53.989Z,100602.72
2018-11-29T07:37:57.447Z,100607.02
2018-11-29T07:39:00.985Z,100608.88
2018-11-29T07:40:04.930Z,100601.98
2018-11-29T07:41:08.344Z,100606.02
2018-11-29T07:42:11.820Z,100607.89
2018-11-29T07:43:15.324Z,100604.58
2018-11-29T07:44:18.829Z,100605.64
2018-11-29T07:45:22.522Z,100600.39
2018-11-29T07:46:25.923Z,100606.37
2018-11-29T07:47:29.341Z,100607.44
2018-11-29T07:48:32.762Z,100594.79
2018-11-29T07:49:36.181Z,100600.28
2018-11-29T07:50:39.584Z,100597.78
2018-11-29T07:51:43.388Z,100599.40
2018-11-29T07:52:47.165Z,100591.41
2018-11-29T07:53:50.773Z,100591.16
2018-11-29T07:54:54.257Z,100589.23
2018-11-29T07:55:57.691Z,100590.03
2018-11-29T07:57:01.832Z,100580.11
2018-11-29T07:58:06.404Z,100583.98
2018-11-29T07:59:14.833Z,100577.92
2018-11-29T08:00:18.742Z,100584.23
2018-11-29T08:01:22.668Z,100575.18
2018-11-29T08:02:26.075Z,100568.56
2018-11-29T08:03:29.975Z,100583.66
2018-11-29T08:04:33.363Z,100575.67
2018-11-29T08:05:36.781Z,100573.24
2018-11-29T08:06:41.328Z,100576.80
2018-11-29T08:07:48.050Z,100570.74
2018-11-29T08:08:51.948Z,100576.80
2018-11-29T08:09:55.356Z,100579.22
2018-11-29T08:11:01.078Z,100579.79
2018-11-29T08:12:04.687Z,100572.92
2018-11-29T08:13:08.175Z,100577.05
2018-11-29T08:14:11.609Z,100578.17
2018-11-29T08:15:18.501Z,100578.17
2018-11-29T08:16:21.979Z,100574.61
2018-11-29T08:17:25.386Z,100592.70
2018-11-29T08:18:28.797Z,100585.03
2018-11-29T08:19:32.743Z,100591.90
2018-11-29T08:20:36.249Z,100586.41
2018-11-29T08:21:39.705Z,100580.11
2018-11-29T08:22:43.170Z,100595.77
2018-11-29T08:23:47.059Z,100591.66
2018-11-29T08:24:50.535Z,100593.59
2018-11-29T08:25:54.014Z,100596.34
2018-11-29T08:26:57.428Z,100599.08
2018-11-29T08:28:00.865Z,100597.14
2018-11-29T08:29:04.422Z,100595.53
2018-11-29T08:30:10.607Z,100592.22
2018-11-29T08:31:14.207Z,100588.09
2018-11-29T08:32:17.683Z,100592.78
2018-11-29T08:33:21.273Z,100592.22
2018-11-29T08:34:24.754Z,100598.84
2018-11-29T08:35:28.898Z,100587.29
2018-11-29T08:36:32.495Z,100588.66
2018-11-29T08:37:36.097Z,100582.92
2018-11-29T08:38:39.879Z,100582.36
2018-11-29T08:39:43.562Z,100578.81
2018-11-29T08:40:47.024Z,100582.36
2018-11-29T08:41:50.494Z,100584.30
2018-11-29T08:42:53.959Z,100591.73
2018-11-29T08:43:57.575Z,100593.09
2018-11-29T08:45:00.995Z,100599.16
2018-11-29T08:46:04.512Z,100593.66
2018-11-29T08:47:07.964Z,100604.08
2018-11-29T08:48:11.328Z,100603.27
2018-11-29T08:49:14.944Z,100597.78
2018-11-29T08:50:18.531Z,100600.28
2018-11-29T08:51:21.976Z,100590.67
2018-11-29T08:52:25.378Z,100596.97
2018-11-29T08:53:28.785Z,100596.16
2018-11-29T08:54:32.279Z,100593.14
2018-11-29T08:55:35.770Z,100597.53
2018-11-29T08:56:39.186Z,100594.52
2018-11-29T08:57:42.661Z,100602.19
2018-11-29T08:58:46.101Z,100592.89
2018-11-29T08:59:49.514Z,100591.52
2018-11-29T09:00:52.967Z,100596.45
2018-11-29T09:01:56.420Z,100594.83
2018-11-29T09:02:59.856Z,100601.12
2018-11-29T09:04:03.312Z,100603.06
2018-11-29T09:05:07.898Z,100603.88
2018-11-29T09:06:11.343Z,100607.75
2018-11-29T09:07:14.757Z,100612.99
2018-11-29T09:08:18.190Z,100608.31
2018-11-29T09:09:21.608Z,100613.23
2018-11-29T09:10:31.357Z,100617.60
2018-11-29T09:11:28.653Z,100623.62
2018-11-29T09:12:32.166Z,100628.72
2018-11-29T09:13:35.707Z,100625.83
2018-11-29T09:14:39.104Z,100623.95
2018-11-29T09:15:42.597Z,100630.44
2018-11-29T09:16:46.074Z,100632.03
2018-11-29T09:17:49.853Z,100631.97
2018-11-29T09:18:53.257Z,100628.91
2018-11-29T09:19:56.675Z,100622.95
2018-11-29T09:21:00.217Z,100627.83
2018-11-29T09:22:03.759Z,100622.30
2018-11-29T09:23:07.438Z,100621.48
2018-11-29T09:24:10.935Z,100621.65
2018-11-29T09:25:15.474Z,100621.74
2018-11-29T09:26:18.916Z,100611.13
2018-11-29T09:27:22.381Z,100607.63
2018-11-29T09:28:25.811Z,100606.91
2018-11-29T09:29:29.291Z,100608.20
2018-11-29T09:30:32.724Z,100609.09
2018-11-29T09:31:36.137Z,100606.34
2018-11-29T09:32:39.587Z,100603.92
2018-11-29T09:33:43.039Z,100598.98
2018-11-29T09:34:46.473Z,100594.62
2018-11-29T09:35:49.923Z,100590.73
2018-11-29T09:36:53.360Z,100590.48
2018-11-29T09:37:56.771Z,100592.48
2018-11-29T09:39:00.367Z,100587.31
2018-11-29T09:40:04.433Z,100585.78
2018-11-29T09:41:07.996Z,100601.25
2018-11-29T09:42:11.452Z,100594.70
2018-11-29T09:43:14.840Z,100587.91
2018-11-29T09:44:18.301Z,100600.63
2018-11-29T09:45:23.675Z,100590.80
2018-11-29T09:46:27.097Z,100599.72
2018-11-29T09:47:30.592Z,100583.77
2018-11-29T09:48:34.014Z,100583.30
2018-11-29T09:49:37.425Z,100581.59
2018-11-29T09:50:40.814Z,100585.73
2018-11-29T09:51:44.269Z,100590.63
2018-11-29T09:52:47.739Z,100595.48
2018-11-29T09:53:51.191Z,100590.30
2018-11-29T09:54:54.712Z,100602.66
2018-11-29T09:55:58.192Z,100598.42
2018-11-29T09:57:01.613Z,100596.44
2018-11-29T09:58:05.435Z,100592.66
2018-11-29T09:59:09.248Z,100591.41
2018-11-29T10:00:18.989Z,100595.69
2018-11-29T10:01:22.407Z,100595.63
2018-11-29T10:02:25.831Z,100585.41
2018-11-29T10:03:29.288Z,100582.89
2018-11-29T10:04:32.753Z,100594.72
2018-11-29T10:05:36.383Z,100581.52
2018-11-29T10:06:40.064Z,100587.73
2018-11-29T10:07:43.558Z,100579.75
2018-11-29T10:08:47.022Z,100584.52
2018-11-29T10:09:50.482Z,100590.51
2018-11-29T10:10:53.926Z,100585.13
2018-11-29T10:11:57.350Z,100587.05
2018-11-29T10:13:00.833Z,100594.22
2018-11-29T10:14:04.297Z,100594.34
2018-11-29T10:15:10.192Z,100589.34
2018-11-29T10:16:13.662Z,100588.77
2018-11-29T10:17:17.278Z,100588.77
2018-11-29T10:18:20.951Z,100589.34
2018-11-29T10:19:24.385Z,100589.98
2018-11-29T10:20:27.922Z,100589.57
2018-11-29T10:21:31.348Z,100582.85
2018-11-29T10:22:34.923Z,100587.28
2018-11-29T10:23:38.377Z,100575.58
2018-11-29T10:24:42.207Z,100574.54
2018-11-29T10:25:46.345Z,100572.05
2018-11-29T10:26:50.562Z,100571.14
2018-11-29T10:27:58.043Z,100561.75
2018-11-29T10:29:01.930Z,100555.09
2018-11-29T10:30:10.707Z,100556.36
2018-11-29T10:31:14.306Z,100541.55
2018-11-29T10:32:17.862Z,100534.42
2018-11-29T10:33:21.499Z,100535.00
2018-11-29T10:34:25.148Z,100529.14
2018-11-29T10:35:28.586Z,100520.87
2018-11-29T10:36:32.036Z,100516.95
2018-11-29T10:37:36.718Z,100517.86
2018-11-29T10:38:40.324Z,100522.64
2018-11-29T10:39:43.776Z,100526.88
2018-11-29T10:40:47.255Z,100529.98
2018-11-29T10:41:50.784Z,100526.52
2018-11-29T10:42:54.269Z,100529.61
2018-11-29T10:43:57.661Z,100522.48
2018-11-29T10:45:01.093Z,100520.94
2018-11-29T10:46:04.548Z,100513.69
2018-11-29T10:47:07.978Z,100507.13
2018-11-29T10:48:15.400Z,100496.55
2018-11-29T10:49:18.915Z,100485.39
2018-11-29T10:50:22.541Z,100473.97
2018-11-29T10:51:26.033Z,100464.19
2018-11-29T10:52:29.462Z,100450.27
2018-11-29T10:53:36.994Z,100442.52
2018-11-29T10:54:44.395Z,100455.73
2018-11-29T10:55:48.083Z,100451.59
2018-11-29T10:56:51.493Z,100446.48
2018-11-29T10:57:58.765Z,100442.94
2018-11-29T10:59:05.636Z,100438.76
2018-11-29T11:00:25.219Z,100441.77
2018-11-29T11:01:31.835Z,100436.89
2018-11-29T11:02:35.340Z,100446.09
2018-11-29T11:03:38.761Z,100440.81
2018-11-29T11:04:42.189Z,100446.56
2018-11-29T11:05:46.148Z,100462.92
2018-11-29T11:06:49.604Z,100475.93
2018-11-29T11:07:53.031Z,100485.34
2018-11-29T11:08:56.583Z,100479.16
2018-11-29T11:10:00.003Z,100485.81
2018-11-29T11:11:06.484Z,100498.46
2018-11-29T11:12:09.959Z,100492.02
2018-11-29T11:13:13.387Z,100503.62
2018-11-29T11:14:16.820Z,100533.91
2018-11-29T11:15:20.235Z,100537.81
2018-11-29T11:16:23.708Z,100517.23
2018-11-29T11:17:29.811Z,100517.23
2018-11-29T11:18:33.244Z,100526.88
2018-11-29T11:19:36.762Z,100531.30
2018-11-29T11:20:43.325Z,100517.17
2018-11-29T11:21:52.392Z,100506.16
2018-11-29T11:22:56.875Z,100517.52
2018-11-29T11:24:00.376Z,100508.09
2018-11-29T11:25:03.985Z,100490.85
2018-11-29T11:26:07.451Z,100490.06
2018-11-29T11:27:10.906Z,100517.42
2018-11-29T11:28:14.360Z,100542.64
2018-11-29T11:29:17.800Z,100519.66
2018-11-29T11:30:22.199Z,100495.73
2018-11-29T11:31:30.998Z,100503.44
2018-11-29T11:32:29.106Z,100516.66
2018-11-29T11:33:32.546Z,100510.80
2018-11-29T11:34:36.006Z,100501.14
2018-11-29T11:35:39.507Z,100487.53
2018-11-29T11:36:42.934Z,100480.41
2018-11-29T11:37:46.389Z,100470.28
2018-11-29T11:38:50.006Z,100489.47
2018-11-29T11:39:53.480Z,100500.52
2018-11-29T11:41:00.200Z,100513.84
2018-11-29T11:42:03.891Z,100528.66
2018-11-29T11:43:08.170Z,100524.59
2018-11-29T11:44:11.635Z,100519.48
2018-11-29T11:45:17.127Z,100515.33
2018-11-29T11:46:20.579Z,100523.38
2018-11-29T11:47:24.003Z,100514.59
2018-11-29T11:48:27.612Z,100502.19
2018-11-29T11:49:31.019Z,100500.91
2018-11-29T11:50:34.476Z,100487.70
2018-11-29T11:51:37.884Z,100484.37
2018-11-29T11:52:41.293Z,100488.14
2018-11-29T11:53:44.793Z,100471.94
2018-11-29T11:54:48.267Z,100476.65
2018-11-29T11:55:53.685Z,100469.62
2018-11-29T11:56:55.186Z,100466.38
2018-11-29T11:57:58.666Z,100478.19
2018-11-29T11:59:02.275Z,100485.41
2018-11-29T12:00:12.600Z,100482.42
2018-11-29T12:01:16.067Z,100472.88
2018-11-29T12:02:19.576Z,100491.37
2018-11-29T12:03:23.015Z,100472.75
2018-11-29T12:04:26.439Z,100472.83
2018-11-29T12:05:29.905Z,100473.16
2018-11-29T12:06:33.369Z,100488.79
2018-11-29T12:07:36.947Z,100490.12